createdAt,value
2022-10-08T00:01:54.365Z,16.90
2022-10-08T00:06:01.386Z,19.25
2022-10-08T00:10:06.314Z,20.75
2022-10-08T00:14:09.520Z,31.48
2022-10-08T00:18:11.489Z,15.65
2022-10-08T00:22:14.009Z,17.92
2022-10-08T00:26:18.475Z,16.58
2022-10-08T00:34:23.792Z,16.10
2022-10-08T00:38:26.031Z,16.13
2022-10-08T00:42:28.082Z,18.13
2022-10-08T00:46:49.394Z,17.08
2022-10-08T00:50:51.845Z,15.13
2022-10-08T00:54:54.028Z,18.17
2022-10-08T00:58:56.023Z,15.77
2022-10-08T01:02:58.077Z,18.65
2022-10-08T01:07:29.625Z,15.25
2022-10-08T01:11:44.631Z,18.48
2022-10-08T01:16:02.429Z,22.05
2022-10-08T01:20:14.326Z,23.13
2022-10-08T01:24:44.496Z,21.95
2022-10-08T01:29:02.805Z,20.10
2022-10-08T01:33:16.033Z,20.95
2022-10-08T01:37:32.960Z,20.38
2022-10-08T01:41:35.829Z,19.15
2022-10-08T01:45:42.723Z,23.10
2022-10-08T01:49:50.656Z,24.42
2022-10-08T01:53:53.265Z,20.30
2022-10-08T01:58:01.333Z,23.15
2022-10-08T02:02:14.346Z,22.77
2022-10-08T02:06:16.949Z,26.92
2022-10-08T02:10:23.178Z,26.00
2022-10-08T02:14:31.871Z,30.75
2022-10-08T02:18:51.954Z,23.58
2022-10-08T02:22:59.075Z,30.13
2022-10-08T02:27:04.606Z,24.83
2022-10-08T02:31:14.243Z,23.90
2022-10-08T02:35:32.192Z,23.25
2022-10-08T02:39:39.169Z,24.20
2022-10-08T02:43:49.712Z,24.60
2022-10-08T02:47:56.509Z,22.00
2022-10-08T02:52:04.232Z,23.75
2022-10-08T02:56:38.916Z,19.08
2022-10-08T03:00:54.771Z,20.10
2022-10-08T03:05:03.291Z,18.25
2022-10-08T03:09:06.918Z,17.45
2022-10-08T03:13:10.747Z,18.95
2022-10-08T03:17:16.080Z,18.70
2022-10-08T03:21:19.380Z,21.08
2022-10-08T03:25:21.413Z,24.40
2022-10-08T03:29:23.529Z,21.48
2022-10-08T03:33:25.501Z,20.08
2022-10-08T03:37:27.535Z,26.27
2022-10-08T03:41:31.417Z,23.98
2022-10-08T03:45:33.635Z,21.90
2022-10-08T03:49:35.668Z,24.23
2022-10-08T03:53:39.258Z,21.67
2022-10-08T03:57:41.404Z,19.63
2022-10-08T04:01:43.657Z,19.67
2022-10-08T04:05:49.351Z,18.80
2022-10-08T04:09:51.339Z,18.60
2022-10-08T04:13:53.443Z,20.70
2022-10-08T04:17:55.415Z,18.17
2022-10-08T04:21:58.055Z,23.70
2022-10-08T04:26:00.076Z,19.05
2022-10-08T04:30:02.107Z,24.17
2022-10-08T04:34:04.134Z,26.08
2022-10-08T04:38:06.160Z,26.30
2022-10-08T04:42:08.332Z,18.42
2022-10-08T04:46:13.385Z,16.90
2022-10-08T04:50:15.513Z,18.15
2022-10-08T04:54:22.749Z,16.02
2022-10-08T04:58:25.972Z,21.02
2022-10-08T05:02:28.056Z,20.52
2022-10-08T05:06:31.627Z,21.63
2022-10-08T05:10:34.004Z,22.63
2022-10-08T05:19:40.527Z,48.45
2022-10-08T05:23:43.437Z,27.98
2022-10-08T05:27:45.482Z,22.98
2022-10-08T05:31:47.627Z,24.83
2022-10-08T05:35:49.795Z,26.77
2022-10-08T05:39:51.879Z,24.83
2022-10-08T05:43:55.125Z,23.60
2022-10-08T05:47:57.538Z,36.10
2022-10-08T05:51:59.661Z,28.90
2022-10-08T05:56:11.240Z,27.48
2022-10-08T06:00:16.797Z,24.02
2022-10-08T06:04:21.973Z,24.75
2022-10-08T06:08:24.202Z,21.40
2022-10-08T06:12:26.721Z,24.60
2022-10-08T06:16:30.469Z,33.30
2022-10-08T06:20:32.729Z,29.02
2022-10-08T06:24:34.673Z,25.45
2022-10-08T06:28:38.937Z,18.35
2022-10-08T06:32:42.231Z,19.15
2022-10-08T06:36:44.269Z,20.92
2022-10-08T06:40:46.297Z,12.60
2022-10-08T06:44:48.379Z,17.13
2022-10-08T06:48:50.546Z,15.70
2022-10-08T06:52:52.635Z,21.50
2022-10-08T06:56:55.791Z,13.85
2022-10-08T07:01:08.895Z,19.05
2022-10-08T07:05:10.921Z,13.88
2022-10-08T07:09:13.550Z,15.52
2022-10-08T07:13:15.564Z,14.70
2022-10-08T07:17:17.611Z,12.95
2022-10-08T07:21:20.992Z,11.77
2022-10-08T07:25:23.023Z,12.15
2022-10-08T07:29:26.347Z,24.05
2022-10-08T07:33:31.242Z,27.45
2022-10-08T07:37:34.072Z,25.88
2022-10-08T07:41:36.618Z,12.25
2022-10-08T07:45:49.417Z,11.02
2022-10-08T07:49:52.535Z,12.70
2022-10-08T07:53:58.806Z,11.18
2022-10-08T07:58:04.705Z,10.35
2022-10-08T08:02:06.862Z,11.80
2022-10-08T08:06:16.567Z,12.52
2022-10-08T08:10:18.547Z,11.82
2022-10-08T08:14:21.598Z,11.98
2022-10-08T08:18:24.028Z,10.20
2022-10-08T08:22:26.091Z,11.13
2022-10-08T08:26:32.943Z,12.50
2022-10-08T08:30:35.209Z,12.20
2022-10-08T08:34:39.096Z,12.45
2022-10-08T08:38:41.211Z,12.18
2022-10-08T08:42:57.210Z,8.68
2022-10-08T08:47:15.925Z,8.23
2022-10-08T08:51:17.922Z,7.22
2022-10-08T08:55:30.072Z,7.35
2022-10-08T08:59:35.866Z,13.13
2022-10-08T09:03:54.524Z,14.32
2022-10-08T09:08:02.582Z,24.95
2022-10-08T09:12:36.470Z,17.67
2022-10-08T09:16:39.904Z,8.30
2022-10-08T09:20:42.588Z,13.48
2022-10-08T09:24:46.678Z,8.90
2022-10-08T09:28:59.350Z,6.40
2022-10-08T09:33:06.681Z,7.60
2022-10-08T09:37:19.292Z,10.65
2022-10-08T09:41:21.307Z,6.65
2022-10-08T09:45:38.501Z,6.78
2022-10-08T09:49:41.283Z,8.15
2022-10-08T09:53:48.389Z,7.85
2022-10-08T09:57:55.684Z,10.93
2022-10-08T10:01:58.963Z,11.00
2022-10-08T10:06:01.679Z,9.17
2022-10-08T10:10:06.430Z,7.63
2022-10-08T10:14:24.086Z,7.28
2022-10-08T10:18:32.674Z,10.57
2022-10-08T10:23:15.178Z,9.48
2022-10-08T10:27:47.080Z,9.30
2022-10-08T10:32:04.872Z,11.93
2022-10-08T10:36:13.618Z,8.73
2022-10-08T10:40:31.901Z,13.02
2022-10-08T10:44:57.726Z,9.18
2022-10-08T10:49:00.134Z,11.48
2022-10-08T10:53:16.050Z,8.13
2022-10-08T10:57:30.025Z,9.52
2022-10-08T11:01:51.092Z,7.63
2022-10-08T11:06:13.001Z,5.82
2022-10-08T11:10:17.924Z,6.78
2022-10-08T11:14:44.889Z,8.32
2022-10-08T11:18:58.734Z,9.20
2022-10-08T11:23:06.040Z,7.03
2022-10-08T11:28:03.886Z,7.43
2022-10-08T11:32:12.634Z,7.40
2022-10-08T11:36:37.610Z,7.50
2022-10-08T11:41:12.019Z,6.93
2022-10-08T11:45:15.217Z,7.47
2022-10-08T11:49:17.115Z,7.07
2022-10-08T11:53:21.791Z,6.00
2022-10-08T12:01:59.045Z,3.70
2022-10-08T12:06:13.420Z,6.22
2022-10-08T12:10:18.405Z,5.88
2022-10-08T12:14:20.431Z,6.38
2022-10-08T12:18:26.237Z,5.10
2022-10-08T12:22:28.509Z,4.88
2022-10-08T12:26:30.466Z,5.10
2022-10-08T12:30:52.987Z,6.78
2022-10-08T12:34:55.881Z,6.18
2022-10-08T12:39:26.638Z,6.57
2022-10-08T12:43:32.053Z,8.75
2022-10-08T12:48:08.778Z,5.28
2022-10-08T12:52:18.494Z,5.97
2022-10-08T12:56:29.323Z,5.75
2022-10-08T13:00:34.570Z,7.35
2022-10-08T13:04:37.087Z,5.32
2022-10-08T13:08:40.268Z,8.40
2022-10-08T13:12:43.670Z,5.55
2022-10-08T13:21:05.304Z,5.68
2022-10-08T13:25:34.134Z,4.72
2022-10-08T13:29:37.471Z,4.00
2022-10-08T13:33:39.522Z,3.22
2022-10-08T13:37:41.716Z,3.28
2022-10-08T13:41:52.355Z,5.50
2022-10-08T13:45:54.611Z,4.40
2022-10-08T13:50:01.795Z,3.13
2022-10-08T13:54:04.063Z,1.65
2022-10-08T13:58:06.794Z,2.72
2022-10-08T14:02:13.491Z,3.00
2022-10-08T14:06:15.625Z,1.35
2022-10-08T14:10:19.078Z,2.17
2022-10-08T14:14:22.639Z,2.85
2022-10-08T14:18:24.687Z,2.17
2022-10-08T14:22:26.699Z,0.77
2022-10-08T14:26:28.903Z,0.80
2022-10-08T14:30:33.557Z,1.05
2022-10-08T14:34:35.871Z,1.83
2022-10-08T14:38:37.887Z,2.78
2022-10-08T14:42:39.864Z,1.60
2022-10-08T14:46:41.878Z,1.63
2022-10-08T14:50:43.857Z,2.00
2022-10-08T14:54:45.944Z,2.28
2022-10-08T14:58:47.974Z,1.73
2022-10-08T15:02:50.003Z,2.85
2022-10-08T15:06:52.312Z,3.20
2022-10-08T15:10:54.379Z,2.45
2022-10-08T15:14:56.519Z,1.90
2022-10-08T15:18:58.820Z,1.95
2022-10-08T15:23:01.941Z,4.15
2022-10-08T15:27:04.350Z,2.10
2022-10-08T15:31:09.995Z,3.22
2022-10-08T15:35:12.067Z,2.70
2022-10-08T15:39:17.069Z,2.35
2022-10-08T15:43:19.416Z,3.70
2022-10-08T15:47:21.475Z,6.03
2022-10-08T15:51:24.459Z,4.88
2022-10-08T15:55:26.510Z,4.67
2022-10-08T15:59:28.572Z,2.70
2022-10-08T16:03:38.074Z,3.72
2022-10-08T16:07:40.226Z,4.45
2022-10-08T16:11:42.597Z,2.75
2022-10-08T16:15:44.547Z,5.35
2022-10-08T16:19:46.590Z,5.60
2022-10-08T16:23:48.936Z,2.40
2022-10-08T16:27:51.071Z,6.50
2022-10-08T16:31:53.287Z,7.03
2022-10-08T16:35:56.038Z,5.53
2022-10-08T16:40:03.839Z,6.35
2022-10-08T16:44:13.244Z,5.75
2022-10-08T16:48:15.692Z,7.93
2022-10-08T16:52:17.714Z,5.63
2022-10-08T16:56:21.511Z,5.15
2022-10-08T17:00:23.573Z,5.95
2022-10-08T17:04:27.988Z,6.43
2022-10-08T17:12:32.636Z,4.60
2022-10-08T17:16:36.128Z,7.47
2022-10-08T17:20:38.268Z,6.57
2022-10-08T17:24:42.401Z,6.35
2022-10-08T17:32:48.288Z,9.88
2022-10-08T17:36:50.495Z,6.05
2022-10-08T17:40:52.430Z,18.02
2022-10-08T17:44:54.463Z,40.15
2022-10-08T17:48:56.891Z,33.08
2022-10-08T17:52:58.895Z,33.63
2022-10-08T17:57:00.868Z,25.90
2022-10-08T18:01:14.571Z,27.15
2022-10-08T18:05:16.704Z,18.27
2022-10-08T18:09:20.586Z,18.60
2022-10-08T18:13:22.620Z,21.00
2022-10-08T18:17:25.358Z,24.45
2022-10-08T18:21:27.876Z,21.55
2022-10-08T18:25:30.120Z,14.70
2022-10-08T18:29:32.166Z,31.65
2022-10-08T18:33:36.231Z,27.77
2022-10-08T18:37:38.283Z,28.08
2022-10-08T18:41:45.757Z,24.08
2022-10-08T18:45:47.855Z,23.92
2022-10-08T18:49:50.001Z,16.13
2022-10-08T18:53:53.610Z,14.07
2022-10-08T18:57:55.575Z,13.53
2022-10-08T19:01:59.431Z,16.35
2022-10-08T19:06:01.647Z,16.23
2022-10-08T19:10:04.313Z,12.68
2022-10-08T19:14:08.424Z,18.42
2022-10-08T19:18:10.760Z,9.15
2022-10-08T19:22:13.057Z,7.50
2022-10-08T19:26:15.231Z,13.00
2022-10-08T19:30:20.277Z,7.38
2022-10-08T19:34:27.654Z,10.35
2022-10-08T19:42:32.555Z,4.68
2022-10-08T19:46:34.950Z,5.00
2022-10-08T19:50:37.127Z,4.32
2022-10-08T19:54:39.076Z,5.25
2022-10-08T19:58:47.645Z,6.05
2022-10-08T20:02:51.396Z,6.97
2022-10-08T20:06:54.360Z,5.47
2022-10-08T20:10:59.310Z,10.75
2022-10-08T20:15:01.308Z,6.68
2022-10-08T20:19:06.771Z,7.32
2022-10-08T20:23:09.613Z,6.28
2022-10-08T20:27:11.739Z,5.75
2022-10-08T20:31:24.014Z,11.93
2022-10-08T20:35:26.365Z,11.90
2022-10-08T20:39:28.731Z,8.07
2022-10-08T20:43:33.590Z,17.35
2022-10-08T20:47:35.601Z,12.32
2022-10-08T20:51:40.038Z,9.95
2022-10-08T20:59:44.045Z,11.90
2022-10-08T21:03:47.449Z,10.88
2022-10-08T21:07:49.374Z,12.57
2022-10-08T21:11:53.659Z,15.77
2022-10-08T21:16:03.719Z,12.00
2022-10-08T21:20:06.616Z,8.57
2022-10-08T21:24:09.436Z,9.70
2022-10-08T21:28:11.563Z,14.43
2022-10-08T21:32:13.673Z,10.68
2022-10-08T21:36:19.033Z,9.65
2022-10-08T21:40:21.046Z,10.77
2022-10-08T21:44:23.297Z,10.43
2022-10-08T21:48:26.380Z,7.35
2022-10-08T21:52:28.337Z,12.23
2022-10-08T21:56:32.934Z,13.45
2022-10-08T22:00:35.058Z,16.80
2022-10-08T22:04:37.211Z,12.02
2022-10-08T22:08:39.192Z,14.98
2022-10-08T22:12:41.171Z,13.20
2022-10-08T22:16:43.538Z,10.98
2022-10-08T22:20:46.044Z,12.82
2022-10-08T22:24:48.375Z,11.75
2022-10-08T22:28:50.986Z,8.40
2022-10-08T22:32:53.167Z,15.48
2022-10-08T22:36:55.080Z,13.77
2022-10-08T22:41:02.071Z,8.88
2022-10-08T22:45:04.268Z,9.77
2022-10-08T22:49:09.138Z,11.15
2022-10-08T22:53:11.457Z,8.98
2022-10-08T22:57:13.551Z,11.13
2022-10-08T23:01:18.586Z,10.20
2022-10-08T23:05:21.004Z,9.02
2022-10-08T23:09:22.937Z,7.82
2022-10-08T23:13:25.469Z,7.53
2022-10-08T23:17:27.493Z,7.72
2022-10-08T23:21:30.023Z,7.22
2022-10-08T23:25:32.174Z,6.38
2022-10-08T23:29:34.116Z,9.52
2022-10-08T23:33:38.301Z,14.13
2022-10-08T23:37:40.263Z,11.23
2022-10-08T23:41:42.388Z,14.80
2022-10-08T23:45:44.487Z,11.73
2022-10-08T23:49:46.516Z,10.55
2022-10-08T23:53:48.943Z,11.93
2022-10-08T23:57:50.872Z,12.27
